Aérodrome :







RETROUVEZ-NOUS SUR...

 
LOGIN :

S'inscrire | Disclaimer

   EN    FR    IT 

 









Légende :    VFR   VFR Marginal   IFR   IFR Intensif   IFR Très Intensif
Visi : 
Plafond : 
>= 8 km
>= 3000ft
5 à 8 km
1000 à 3000 ft
1500m à 5 km
500 à 1000 ft
800 à 1500m
200 à 500 ft
< 800m
< 200 ft
Symboles :   Orages  Brouillard  Fortes neiges  Fortes précipitations  Vent > 20 kt






- Altitude de l'aérodrome : 603 ft
- Code IATA : LEB


KLEB - Lebanon Municipal

DERNIER METAR :
  • 132253Z 36009KT 10SM SCT038 BKN065 28/18 A2978 RMK AO2 LTG DSNT E SLP071 T02830178

METARs EXPIRÉS :
  • 132153Z 24007KT 10SM SCT060 30/14 A2974 RMK AO2 SLP058 T03000139
  • 132053Z 31005KT 10SM CLR 31/14 A2974 RMK AO2 SLP056 T03110144 57003

TAF KLEB
Valide du 13 à 18h jusqu'au 14 à 18h UTC


131734Z 1318/1418 28004KT P6SM SCT050 BKN100
FM140000 VRB03KT P6SM SCT050
FM140600 00000KT 2SM BR BKN002
FIR KZBW / Amérique du Nord



MET'MAP, la Météo Aéronautique d'un coup d'oeil ! - Copyright ORBIFLY Décembre 2007 - Disclaimer

ORBIFLY MET'MAP TEAM :

Programmation & Développement : Alexandra Zaïnal
Sur une idée originale de : Baudouin d'Aumeries
Assistance à la programmation : Marc-Olivier Méhu
Soutien technique & logistique : Manuel Goepfert

Contact : metmap@orbifly.com




SOURCES & CREDITS :

   NOAA